Time;durP1;ratioP1;P1;durP2;ratioP2;P2;SDS_P1;SDS_P2;PMS_P1;PMS_P2;Temp;Humidity;BMP_temperature;BMP_pressure;BME280_temperature;BME280_humidity;BME280_pressure;Samples;Min_cycle;Max_cycle;Signal;HPM_P1;HPM_P2
2023/01/27 00:00:05;;;;;;;10.50;3.17;;;;;;;2.89;100.00;102438.84;5030115;28;20045;-77
2023/01/27 00:02:31;;;;;;;11.37;3.23;;;;;;;2.91;100.00;102437.91;5038150;28;20032;-77
2023/01/27 00:04:57;;;;;;;11.85;3.05;;;;;;;2.88;100.00;102437.16;5036357;28;20052;-78
2023/01/27 00:07:22;;;;;;;13.55;3.40;;;;;;;2.88;100.00;102442.28;5042861;28;20371;-77
2023/01/27 00:09:47;;;;;;;12.68;3.28;;;;;;;2.84;100.00;102440.69;5044855;28;20277;-78
2023/01/27 00:15:06;;;;;;;14.60;3.83;;;;;;;2.80;100.00;102444.19;5041052;28;20527;-77
2023/01/27 00:17:32;;;;;;;12.93;3.33;;;;;;;2.78;100.00;102433.13;5032261;28;20040;-79
2023/01/27 00:19:58;;;;;;;13.25;3.40;;;;;;;2.75;100.00;102440.88;5033849;28;20468;-77
2023/01/27 00:25:07;;;;;;;13.10;3.80;;;;;;;2.75;100.00;102440.88;5038811;28;20044;-77
2023/01/27 00:27:32;;;;;;;11.95;3.97;;;;;;;2.74;100.00;102444.31;5038667;28;20029;-78
2023/01/27 00:29:58;;;;;;;14.32;3.67;;;;;;;2.71;100.00;102449.53;5035048;28;20056;-77
2023/01/27 00:35:07;;;;;;;10.73;3.67;;;;;;;2.66;100.00;102432.53;5040349;28;20077;-77
2023/01/27 00:37:32;;;;;;;12.35;3.35;;;;;;;2.67;100.00;102429.09;5042714;28;20029;-77
2023/01/27 00:39:58;;;;;;;9.73;3.42;;;;;;;2.70;100.00;102447.84;5050253;28;20294;-77
2023/01/27 00:42:23;;;;;;;14.35;3.88;;;;;;;2.66;100.00;102447.91;5034014;28;20017;-77
2023/01/27 00:47:32;;;;;;;10.68;3.78;;;;;;;2.63;100.00;102442.84;5041436;28;20085;-77
2023/01/27 00:49:58;;;;;;;13.35;4.18;;;;;;;2.67;100.00;102443.63;5041740;28;20033;-78
2023/01/27 00:52:25;;;;;;;11.10;3.83;;;;;;;2.67;100.00;102452.16;5040707;28;20803;-77
2023/01/27 00:54:50;;;;;;;14.18;3.63;;;;;;;2.63;100.00;102445.41;5032327;28;20207;-78
2023/01/27 00:57:15;;;;;;;11.32;3.70;;;;;;;2.66;100.00;102452.19;5043587;28;20067;-79
2023/01/27 00:59:40;;;;;;;12.70;3.78;;;;;;;2.65;100.00;102461.59;5040902;28;20192;-78
2023/01/27 01:02:06;;;;;;;9.02;3.40;;;;;;;2.62;100.00;102448.00;5041493;28;20522;-77
2023/01/27 01:04:31;;;;;;;12.25;3.85;;;;;;;2.64;100.00;102444.53;5034663;28;20473;-77
2023/01/27 01:06:56;;;;;;;11.57;3.55;;;;;;;2.62;100.00;102446.28;5040387;28;20033;-77
2023/01/27 01:09:22;;;;;;;16.95;3.78;;;;;;;2.62;100.00;102446.28;5038257;28;20025;-78
2023/01/27 01:11:47;;;;;;;14.48;4.72;;;;;;;2.60;100.00;102450.59;5040650;28;20082;-76
2023/01/27 01:14:13;;;;;;;10.82;3.90;;;;;;;2.57;100.00;102437.84;5042847;28;20029;-77
2023/01/27 01:16:38;;;;;;;9.82;4.05;;;;;;;2.53;100.00;102446.50;5043197;28;20075;-77
2023/01/27 01:19:03;;;;;;;15.18;4.22;;;;;;;2.59;100.00;102456.59;5033999;28;20025;-77
2023/01/27 01:21:29;;;;;;;11.15;3.78;;;;;;;2.57;100.00;102453.22;5044802;28;20035;-78
2023/01/27 01:23:54;;;;;;;11.68;3.90;;;;;;;2.55;100.00;102449.88;5042859;28;20033;-78
2023/01/27 01:26:19;;;;;;;15.25;4.45;;;;;;;2.57;100.00;102448.09;5042451;28;20139;-78
2023/01/27 01:28:45;;;;;;;11.00;3.78;;;;;;;2.57;100.00;102457.50;5042481;28;20143;-78
2023/01/27 01:31:14;;;;;;;11.02;4.15;;;;;;;2.57;100.00;102465.19;5035964;28;20108;-78
2023/01/27 01:33:39;;;;;;;12.55;4.55;;;;;;;2.58;100.00;102469.44;5045430;28;20540;-78
2023/01/27 01:36:06;;;;;;;12.93;4.03;;;;;;;2.59;100.00;102461.72;5048940;28;20418;-77
2023/01/27 01:38:31;;;;;;;11.45;4.28;;;;;;;2.57;100.00;102466.03;5043404;28;20028;-78
2023/01/27 01:40:57;;;;;;;13.85;4.47;;;;;;;2.54;100.00;102458.44;5041996;28;20091;-78
2023/01/27 01:43:22;;;;;;;11.13;4.57;;;;;;;2.60;100.00;102468.53;5039153;28;20642;-78
2023/01/27 01:45:50;;;;;;;16.38;5.15;;;;;;;2.59;100.00;102471.97;5040155;28;20032;-78
2023/01/27 01:48:35;;;;;;;13.30;4.85;;;;;;;2.60;100.00;102481.34;5043314;28;20021;-79
2023/01/27 01:51:08;;;;;;;12.43;4.88;;;;;;;2.57;100.00;102476.28;5042581;28;20104;-78
2023/01/27 01:53:56;;;;;;;9.18;4.30;;;;;;;2.57;100.00;102468.59;5036362;28;20029;-79
2023/01/27 01:56:27;;;;;;;10.32;4.28;;;;;;;2.54;100.00;102458.44;5044627;28;20037;-78
2023/01/27 01:58:56;;;;;;;13.40;4.70;;;;;;;2.52;100.00;102465.28;5039819;28;20394;-78
2023/01/27 02:01:22;;;;;;;10.77;4.57;;;;;;;2.50;100.00;102467.03;5038440;28;20480;-77
2023/01/27 02:03:52;;;;;;;12.38;4.80;;;;;;;2.50;100.00;102477.28;5040399;28;20415;-78
2023/01/27 02:06:19;;;;;;;11.60;5.32;;;;;;;2.50;100.00;102479.84;5039285;28;20108;-77
2023/01/27 02:08:47;;;;;;;13.27;5.60;;;;;;;2.47;100.00;102487.63;5043784;28;20112;-77
2023/01/27 02:11:12;;;;;;;14.05;5.60;;;;;;;2.37;100.00;102471.59;5031754;28;20036;-78
2023/01/27 02:13:39;;;;;;;13.20;6.35;;;;;;;2.41;99.92;102482.63;5038045;28;20712;-78
2023/01/27 02:16:05;;;;;;;12.35;6.35;;;;;;;2.41;99.98;102482.63;5041529;28;20037;-77
2023/01/27 02:18:31;;;;;;;14.07;5.93;;;;;;;2.39;100.00;102484.34;5045993;28;20059;-79
2023/01/27 02:20:56;;;;;;;11.73;5.80;;;;;;;2.38;100.00;102478.38;5043630;28;20028;-77
2023/01/27 02:24:09;;;;;;;15.00;6.50;;;;;;;2.36;100.00;102492.13;5040010;28;20285;-78
2023/01/27 02:26:42;;;;;;;14.68;6.15;;;;;;;2.35;100.00;102487.84;5027149;28;20060;-77
2023/01/27 02:29:11;;;;;;;11.18;5.07;;;;;;;2.35;100.00;102492.97;5033445;28;20033;-78
2023/01/27 02:31:36;;;;;;;14.48;6.28;;;;;;;2.34;100.00;102496.41;5034732;28;20117;-77
2023/01/27 02:34:05;;;;;;;16.00;6.28;;;;;;;2.32;100.00;102482.81;5037657;28;20531;-77
2023/01/27 02:36:35;;;;;;;14.60;6.18;;;;;;;2.38;100.00;102498.03;5043725;28;20411;-78
2023/01/27 02:39:01;;;;;;;14.95;7.03;;;;;;;2.37;100.00;102506.59;5046159;28;20029;-78
2023/01/27 02:41:38;;;;;;;14.75;6.50;;;;;;;2.38;100.00;102498.88;5045978;28;20477;-79
2023/01/27 02:44:04;;;;;;;16.13;6.68;;;;;;;2.37;100.00;102491.22;5044160;28;20040;-78
2023/01/27 02:46:30;;;;;;;17.08;6.50;;;;;;;2.38;100.00;102492.91;5041701;28;20075;-78
2023/01/27 02:48:55;;;;;;;16.10;6.28;;;;;;;2.37;100.00;102494.63;5041000;28;20025;-78
2023/01/27 02:51:20;;;;;;;16.63;7.57;;;;;;;2.35;100.00;102490.41;5048046;28;20030;-77
2023/01/27 02:53:46;;;;;;;12.93;6.28;;;;;;;2.38;100.00;102500.59;5045068;28;20525;-77
2023/01/27 02:56:11;;;;;;;15.35;6.93;;;;;;;2.39;100.00;102495.44;5036080;28;20036;-79
2023/01/27 02:58:37;;;;;;;13.00;6.15;;;;;;;2.38;100.00;102501.44;5043921;28;20036;-77
2023/01/27 03:01:03;;;;;;;16.35;6.85;;;;;;;2.39;100.00;102499.72;5034822;28;20041;-78
2023/01/27 03:03:28;;;;;;;13.30;6.65;;;;;;;2.40;100.00;102511.63;5042191;28;20036;-78
2023/01/27 03:05:53;;;;;;;13.55;6.93;;;;;;;2.37;100.00;102492.06;5054656;28;20111;-78
2023/01/27 03:08:19;;;;;;;13.55;6.53;;;;;;;2.40;100.00;102507.34;5045688;28;20469;-77
2023/01/27 03:10:50;;;;;;;14.98;7.45;;;;;;;2.35;100.00;102508.31;5037573;28;20033;-77
2023/01/27 03:13:19;;;;;;;15.77;7.28;;;;;;;2.35;100.00;102508.31;5033180;28;20033;-77
2023/01/27 03:18:28;;;;;;;17.60;9.27;;;;;;;2.33;100.00;102504.97;5044666;28;20035;-77
2023/01/27 03:21:00;;;;;;;16.98;8.30;;;;;;;2.34;100.00;102509.22;5047590;28;20021;-78
2023/01/27 03:23:26;;;;;;;20.08;8.88;;;;;;;2.33;100.00;102510.09;5047329;28;20029;-78
2023/01/27 03:25:52;;;;;;;18.48;8.98;;;;;;;2.30;100.00;102515.28;5042318;28;20067;-79
2023/01/27 03:28:17;;;;;;;18.05;9.57;;;;;;;2.28;100.00;102511.88;5040101;28;20554;-78
2023/01/27 03:30:42;;;;;;;18.83;9.35;;;;;;;2.24;100.00;102507.72;5036238;28;20496;-77
2023/01/27 03:33:08;;;;;;;19.17;9.88;;;;;;;2.28;100.00;102522.97;5036525;28;20032;-77
2023/01/27 03:35:37;;;;;;;19.58;9.38;;;;;;;2.25;100.00;102522.22;5036555;28;20048;-77
2023/01/27 03:46:23;;;;;;;20.67;9.25;;;;;;;2.28;100.00;102532.38;5036310;28;20047;-77
2023/01/27 03:48:51;;;;;;;17.23;8.98;;;;;;;2.24;100.00;102533.31;5036580;28;20025;-78
2023/01/27 03:51:17;;;;;;;19.83;9.50;;;;;;;2.24;100.00;102529.03;5033991;28;20499;-77
2023/01/27 03:53:43;;;;;;;20.80;11.05;;;;;;;2.26;100.00;102529.00;5030923;28;20029;-78
2023/01/27 03:56:09;;;;;;;20.40;11.93;;;;;;;2.25;100.00;102527.31;5042252;28;20428;-79
2023/01/27 03:58:36;;;;;;;20.63;11.18;;;;;;;2.30;100.00;102528.09;5045658;28;20112;-78
2023/01/27 04:01:11;;;;;;;21.08;11.20;;;;;;;2.29;100.00;102534.06;5033990;28;20084;-78
2023/01/27 04:09:09;;;;;;;20.63;11.13;;;;;;;2.34;100.00;102532.25;5049011;28;20454;-78
2023/01/27 04:14:19;;;;;;;22.08;12.00;;;;;;;2.34;100.00;102540.78;5039777;28;20088;-78
2023/01/27 04:16:45;;;;;;;20.15;11.55;;;;;;;2.33;100.00;102535.69;5037303;28;20063;-78
2023/01/27 04:19:11;;;;;;;22.42;11.55;;;;;;;2.36;100.00;102545.88;5036804;28;20033;-77
2023/01/27 04:21:37;;;;;;;21.95;11.30;;;;;;;2.36;100.00;102545.88;5038482;28;20028;-77
2023/01/27 04:24:03;;;;;;;20.52;11.07;;;;;;;2.36;100.00;102543.31;5039758;28;20025;-78
2023/01/27 04:26:33;;;;;;;21.60;12.00;;;;;;;2.33;100.00;102541.66;5046713;28;20029;-78
2023/01/27 04:29:02;;;;;;;21.95;11.55;;;;;;;2.33;100.00;102545.94;5036201;28;20033;-78
2023/01/27 04:31:28;;;;;;;18.02;10.73;;;;;;;2.34;100.00;102539.94;5039484;28;20029;-78
2023/01/27 04:33:53;;;;;;;16.70;9.98;;;;;;;2.33;100.00;102540.81;5038637;28;20483;-78
2023/01/27 04:36:18;;;;;;;19.55;9.63;;;;;;;2.38;100.00;102554.38;5036979;28;20045;-79
2023/01/27 04:38:44;;;;;;;18.48;10.63;;;;;;;2.37;100.00;102553.53;5036676;28;20036;-78
2023/01/27 04:41:09;;;;;;;17.83;10.63;;;;;;;2.39;100.00;102556.88;5028765;28;20033;-78
2023/01/27 04:43:35;;;;;;;18.67;10.73;;;;;;;2.38;100.00;102555.22;5030657;28;20041;-78
2023/01/27 04:46:00;;;;;;;16.80;10.10;;;;;;;2.37;100.00;102557.81;5044244;28;20039;-79
2023/01/27 04:48:25;;;;;;;15.55;9.05;;;;;;;2.42;100.00;102550.88;5041927;28;20313;-79
2023/01/27 04:50:51;;;;;;;14.20;8.90;;;;;;;2.43;100.00;102552.56;5038073;28;20547;-78
2023/01/27 04:53:16;;;;;;;16.00;9.63;;;;;;;2.45;99.76;102555.09;5038234;28;20063;-78
2023/01/27 04:55:47;;;;;;;16.17;9.50;;;;;;;2.45;100.00;102552.53;5038284;28;20032;-77
2023/01/27 04:58:13;;;;;;;16.00;9.18;;;;;;;2.46;100.00;102555.03;5037561;28;20139;-77
2023/01/27 05:00:39;;;;;;;16.23;8.85;;;;;;;2.40;100.00;102548.31;5038011;28;20136;-78
2023/01/27 05:03:05;;;;;;;14.63;8.32;;;;;;;2.46;99.64;102549.09;5039532;28;20071;-78
2023/01/27 05:05:31;;;;;;;13.00;8.15;;;;;;;2.43;99.30;102552.56;5043203;28;20017;-77
2023/01/27 05:08:02;;;;;;;13.50;8.23;;;;;;;2.50;98.84;102559.25;5046250;28;20067;-77
2023/01/27 05:10:27;;;;;;;12.95;8.00;;;;;;;2.50;98.97;102558.41;5042571;28;20462;-77
2023/01/27 05:12:53;;;;;;;12.70;8.13;;;;;;;2.52;99.19;102561.75;5041969;28;20140;-77
2023/01/27 05:15:18;;;;;;;12.32;7.80;;;;;;;2.50;99.64;102569.50;5037560;28;20051;-77
2023/01/27 05:17:43;;;;;;;12.45;7.40;;;;;;;2.54;99.05;102578.81;5040455;28;20028;-77
2023/01/27 05:20:09;;;;;;;12.88;8.13;;;;;;;2.51;99.08;102560.94;5049886;28;20433;-78
2023/01/27 05:22:35;;;;;;;14.13;8.48;;;;;;;2.52;99.11;102565.16;5038903;28;20028;-77
2023/01/27 05:25:00;;;;;;;11.73;7.63;;;;;;;2.52;99.31;102572.00;5040597;28;20456;-77
2023/01/27 05:27:25;;;;;;;13.15;7.10;;;;;;;2.56;98.80;102571.91;5045772;28;20536;-77
2023/01/27 05:29:51;;;;;;;11.10;7.03;;;;;;;2.54;98.88;102563.44;5040836;28;20035;-77
2023/01/27 05:32:16;;;;;;;12.05;7.38;;;;;;;2.58;98.54;102567.63;5040225;28;20792;-77
2023/01/27 05:34:42;;;;;;;12.45;7.32;;;;;;;2.55;98.63;102557.44;5042460;28;20096;-78
2023/01/27 05:37:07;;;;;;;11.15;7.00;;;;;;;2.56;98.49;102564.25;5037631;28;20036;-77
2023/01/27 05:39:33;;;;;;;11.60;7.13;;;;;;;2.56;98.30;102574.47;5037162;28;20364;-77
2023/01/27 05:41:58;;;;;;;10.90;6.70;;;;;;;2.61;98.43;102571.84;5043314;28;20086;-77
2023/01/27 05:44:23;;;;;;;12.10;6.88;;;;;;;2.59;98.52;102574.44;5041488;28;20029;-77
2023/01/27 05:46:49;;;;;;;9.88;6.28;;;;;;;2.60;98.68;102581.25;5038793;28;20400;-77
2023/01/27 05:49:14;;;;;;;11.18;6.85;;;;;;;2.59;98.39;102569.31;5041821;28;20044;-77
2023/01/27 05:51:40;;;;;;;11.23;6.43;;;;;;;2.60;97.42;102571.00;5045666;28;20479;-77
2023/01/27 05:54:06;;;;;;;11.35;6.30;;;;;;;2.62;97.48;102579.47;5040273;28;20070;-78
2023/01/27 05:56:32;;;;;;;9.65;6.05;;;;;;;2.64;97.81;102582.88;5046270;28;20155;-78
2023/01/27 05:58:58;;;;;;;11.43;6.72;;;;;;;2.65;97.67;102581.16;5034443;28;20104;-77
2023/01/27 06:01:29;;;;;;;11.63;6.28;;;;;;;2.66;98.02;102586.25;5037832;28;20032;-77
2023/01/27 06:03:55;;;;;;;12.00;6.93;;;;;;;2.62;97.83;102578.63;5036004;28;20062;-78
2023/01/27 06:06:23;;;;;;;10.85;6.65;;;;;;;2.65;98.08;102589.69;5041725;28;20037;-78
2023/01/27 06:08:48;;;;;;;9.93;6.10;;;;;;;2.64;97.82;102593.13;5045620;28;20021;-77
2023/01/27 06:11:16;;;;;;;9.73;5.95;;;;;;;2.64;97.55;102587.16;5044045;28;20465;-78
2023/01/27 06:13:41;;;;;;;8.95;5.88;;;;;;;2.66;97.33;102591.38;5035865;28;20473;-78
2023/01/27 06:16:09;;;;;;;10.73;6.47;;;;;;;2.67;96.92;102598.16;5043412;28;21887;-79
2023/01/27 06:18:36;;;;;;;9.23;5.60;;;;;;;2.63;97.39;102586.28;5036140;28;20462;-78
2023/01/27 06:21:02;;;;;;;9.85;5.63;;;;;;;2.68;97.08;102593.88;5031383;28;20013;-79
2023/01/27 06:23:28;;;;;;;9.38;4.88;;;;;;;2.65;96.84;102599.94;5034730;28;20033;-78
2023/01/27 06:25:54;;;;;;;8.95;5.72;;;;;;;2.67;96.73;102598.16;5033903;28;20044;-77
2023/01/27 06:28:20;;;;;;;8.85;5.97;;;;;;;2.70;97.02;102606.69;5045060;28;20124;-77
2023/01/27 06:30:46;;;;;;;8.07;4.85;;;;;;;2.66;96.73;102599.03;5044293;28;20491;-78
2023/01/27 06:33:11;;;;;;;10.35;5.50;;;;;;;2.67;96.81;102608.41;5041321;28;20109;-77
2023/01/27 06:35:39;;;;;;;9.27;5.40;;;;;;;2.70;95.84;102611.81;5038355;28;20039;-78
2023/01/27 06:38:08;;;;;;;10.00;5.55;;;;;;;2.69;95.39;102603.25;5035880;28;20041;-79
2023/01/27 06:40:34;;;;;;;9.02;5.35;;;;;;;2.70;96.04;102611.81;5046097;28;20825;-79
2023/01/27 06:43:00;;;;;;;9.68;5.30;;;;;;;2.72;95.96;102621.13;5039954;28;20028;-78
2023/01/27 06:45:26;;;;;;;9.57;5.63;;;;;;;2.72;95.71;102610.06;5045958;28;20043;-78
2023/01/27 06:47:59;;;;;;;9.20;5.32;;;;;;;2.72;95.52;102625.41;5049225;28;20518;-78
2023/01/27 06:50:27;;;;;;;9.20;5.40;;;;;;;2.68;95.33;102619.50;5040496;28;20053;-78
2023/01/27 06:52:58;;;;;;;8.13;5.05;;;;;;;2.71;94.90;102622.03;5043294;28;20074;-78
2023/01/27 06:55:23;;;;;;;10.32;5.50;;;;;;;2.65;95.88;102606.78;5044159;28;20078;-77
2023/01/27 06:57:48;;;;;;;7.70;5.25;;;;;;;2.67;95.52;102626.34;5037782;28;20424;-78
2023/01/27 07:00:15;;;;;;;8.77;5.20;;;;;;;2.67;95.49;102620.38;5036824;28;20021;-78
2023/01/27 07:02:41;;;;;;;9.98;5.80;;;;;;;2.66;95.58;102627.22;5040507;28;20028;-77
2023/01/27 07:05:07;;;;;;;7.90;4.80;;;;;;;2.63;95.95;102616.19;5040134;28;20674;-77
2023/01/27 07:07:32;;;;;;;9.05;5.45;;;;;;;2.64;95.83;102626.44;5038181;28;20040;-77
2023/01/27 07:09:57;;;;;;;8.90;5.10;;;;;;;2.64;95.94;102629.00;5042658;28;20036;-77
2023/01/27 07:12:22;;;;;;;9.13;4.88;;;;;;;2.64;96.13;102629.00;5041171;28;20075;-78
2023/01/27 07:14:48;;;;;;;8.73;5.57;;;;;;;2.63;95.92;102632.41;5043074;28;20108;-77
2023/01/27 07:17:13;;;;;;;7.90;5.00;;;;;;;2.62;95.94;102620.47;5041076;28;20068;-79
2023/01/27 07:19:38;;;;;;;9.77;5.20;;;;;;;2.60;95.64;102627.34;5041624;28;20123;-77
2023/01/27 07:22:04;;;;;;;9.10;5.22;;;;;;;2.61;96.00;102629.03;5030633;28;20053;-77
2023/01/27 07:24:29;;;;;;;8.52;5.03;;;;;;;2.57;96.23;102621.44;5042726;28;20460;-78
2023/01/27 07:26:55;;;;;;;8.25;5.03;;;;;;;2.59;96.13;102630.78;5039126;28;20017;-77
2023/01/27 07:29:20;;;;;;;7.65;4.57;;;;;;;2.57;96.29;102637.63;5041540;28;20083;-77
2023/01/27 07:31:46;;;;;;;9.13;5.13;;;;;;;2.54;96.89;102642.00;5036428;28;20059;-78
2023/01/27 07:34:11;;;;;;;7.93;4.43;;;;;;;2.50;96.28;102636.06;5034438;28;20052;-77
2023/01/27 07:36:36;;;;;;;9.48;4.75;;;;;;;2.46;96.00;102629.31;5039381;28;20047;-78
2023/01/27 07:39:02;;;;;;;7.85;4.97;;;;;;;2.49;96.13;102636.94;5040687;28;20531;-77
2023/01/27 07:41:27;;;;;;;6.82;4.45;;;;;;;2.48;95.83;102645.50;5036261;28;20543;-77
2023/01/27 07:43:52;;;;;;;8.32;4.82;;;;;;;2.45;95.87;102643.00;5032011;28;20031;-77
2023/01/27 07:46:18;;;;;;;7.28;4.80;;;;;;;2.41;96.05;102633.69;5030740;28;20083;-78
2023/01/27 07:48:43;;;;;;;10.00;4.70;;;;;;;2.42;95.84;102645.63;5040931;28;20554;-79
2023/01/27 07:51:12;;;;;;;8.30;5.15;;;;;;;2.44;95.21;102660.97;5037446;28;20060;-77
2023/01/27 07:53:38;;;;;;;9.00;4.82;;;;;;;2.41;95.78;102646.50;5035165;28;20119;-78
2023/01/27 07:56:04;;;;;;;8.25;4.50;;;;;;;2.40;95.92;102650.75;5039683;28;20027;-76
2023/01/27 07:58:29;;;;;;;8.50;4.55;;;;;;;2.38;95.64;102651.66;5046635;28;20393;-76
2023/01/27 08:00:55;;;;;;;8.27;4.93;;;;;;;2.39;96.20;102658.47;5039269;28;20118;-77
2023/01/27 08:03:23;;;;;;;8.23;4.43;;;;;;;2.41;96.58;102661.88;5035655;28;20075;-77
2023/01/27 08:05:49;;;;;;;8.40;4.47;;;;;;;2.42;96.06;102653.31;5032763;28;20028;-77
2023/01/27 08:08:15;;;;;;;7.78;4.82;;;;;;;2.43;96.07;102670.34;5041246;28;20025;-76
2023/01/27 08:10:45;;;;;;;8.10;4.85;;;;;;;2.43;95.42;102660.13;5038503;28;20327;-78
2023/01/27 08:13:11;;;;;;;7.78;4.78;;;;;;;2.46;95.87;102670.28;5028433;28;20036;-78
2023/01/27 08:15:36;;;;;;;8.57;4.75;;;;;;;2.45;95.28;102668.59;5034471;28;20025;-78
2023/01/27 08:18:02;;;;;;;8.13;4.00;;;;;;;2.48;95.25;102675.41;5043215;28;20510;-78
2023/01/27 08:20:28;;;;;;;8.52;4.03;;;;;;;2.43;95.22;102667.81;5040630;28;20032;-77
2023/01/27 08:22:54;;;;;;;7.93;3.72;;;;;;;2.48;95.59;102678.81;5038138;28;20065;-77
2023/01/27 08:25:19;;;;;;;6.40;4.25;;;;;;;2.50;95.10;102687.31;5036299;28;20587;-78
2023/01/27 08:27:48;;;;;;;7.90;3.63;;;;;;;2.50;94.63;102687.31;5047590;28;20488;-78
2023/01/27 08:30:14;;;;;;;6.32;3.40;;;;;;;2.50;94.47;102687.31;5044651;28;20136;-77
2023/01/27 08:32:39;;;;;;;7.03;3.83;;;;;;;2.46;94.65;102692.50;5036148;28;20033;-78
2023/01/27 08:35:05;;;;;;;6.60;4.00;;;;;;;2.51;94.16;102706.06;5033015;28;20025;-77
2023/01/27 08:37:30;;;;;;;5.97;3.72;;;;;;;2.44;94.18;102697.66;5033695;28;20394;-77
2023/01/27 08:39:56;;;;;;;5.80;3.53;;;;;;;2.49;93.85;102716.34;5030456;28;20390;-77
2023/01/27 08:42:21;;;;;;;5.53;3.58;;;;;;;2.48;94.19;102709.53;5045887;28;20135;-78
2023/01/27 08:44:46;;;;;;;5.32;3.25;;;;;;;2.45;93.81;102719.81;5044293;28;20104;-78
2023/01/27 08:47:12;;;;;;;6.53;3.85;;;;;;;2.30;93.62;102691.94;5042241;28;20067;-77
2023/01/27 08:49:37;;;;;;;8.20;3.72;;;;;;;2.44;92.68;102718.13;5041596;28;20025;-78
2023/01/27 08:52:02;;;;;;;5.97;3.30;;;;;;;2.43;94.07;102716.44;5048721;28;20156;-77
2023/01/27 08:54:28;;;;;;;6.70;3.90;;;;;;;2.43;93.40;102715.63;5049410;28;20530;-78
2023/01/27 08:56:53;;;;;;;5.43;3.55;;;;;;;2.42;93.65;102717.34;5039981;28;20032;-78
2023/01/27 08:59:18;;;;;;;6.45;3.33;;;;;;;2.43;93.54;102715.63;5029642;28;20021;-78
2023/01/27 09:01:44;;;;;;;7.82;3.42;;;;;;;2.43;93.71;102716.44;5039037;28;20029;-78
2023/01/27 09:04:09;;;;;;;5.22;3.33;;;;;;;2.44;94.05;102732.66;5043809;28;20062;-78
2023/01/27 09:06:35;;;;;;;7.18;3.60;;;;;;;2.44;93.92;102733.50;5039983;28;20025;-77
2023/01/27 09:09:09;;;;;;;6.85;3.42;;;;;;;2.44;94.45;102722.41;5035439;28;20527;-78
2023/01/27 09:11:36;;;;;;;5.95;3.17;;;;;;;2.44;94.31;102723.25;5043180;28;20024;-79
2023/01/27 09:14:02;;;;;;;4.75;3.10;;;;;;;2.42;94.00;102725.00;5042823;28;20017;-77
2023/01/27 09:16:28;;;;;;;5.95;3.58;;;;;;;2.39;94.44;102719.94;5048205;28;20036;-79
2023/01/27 09:18:53;;;;;;;7.65;3.58;;;;;;;2.42;94.25;102729.28;5044276;28;20032;-77
2023/01/27 09:21:19;;;;;;;8.13;4.00;;;;;;;2.42;94.57;102729.28;5042096;28;20136;-78
2023/01/27 09:23:47;;;;;;;6.22;3.80;;;;;;;2.39;94.40;102735.28;5043878;28;20381;-77
2023/01/27 09:26:13;;;;;;;6.80;3.63;;;;;;;2.40;94.48;102736.97;5042185;28;20035;-77
2023/01/27 09:28:38;;;;;;;6.75;3.58;;;;;;;2.39;94.09;102742.97;5042806;28;20496;-78
2023/01/27 09:31:04;;;;;;;5.50;3.30;;;;;;;2.43;95.14;102757.44;5043154;28;20048;-78
2023/01/27 09:33:29;;;;;;;5.70;3.75;;;;;;;2.43;94.32;102747.19;5037208;28;20183;-77
2023/01/27 09:36:05;;;;;;;6.63;3.65;;;;;;;2.42;95.03;102753.19;5048790;28;20059;-77
2023/01/27 09:38:36;;;;;;;7.28;3.85;;;;;;;2.44;94.79;102761.69;5037278;28;20032;-77
2023/01/27 09:41:07;;;;;;;7.00;4.07;;;;;;;2.44;95.11;102769.34;5042565;28;20530;-78
2023/01/27 09:43:51;;;;;;;5.63;3.55;;;;;;;2.44;94.67;102764.22;5045524;28;20028;-77
2023/01/27 09:46:40;;;;;;;6.38;3.70;;;;;;;2.37;94.55;102766.06;5041831;28;20053;-77
2023/01/27 09:49:43;;;;;;;7.15;3.67;;;;;;;2.42;95.15;102766.00;5041928;28;20047;-77
2023/01/27 09:52:31;;;;;;;6.18;3.35;;;;;;;2.42;95.29;102768.56;5033940;28;20033;-77
2023/01/27 09:55:31;;;;;;;5.78;3.38;;;;;;;2.42;95.32;102763.44;5044051;28;20047;-77
2023/01/27 09:58:24;;;;;;;6.78;3.63;;;;;;;2.44;95.27;102774.47;5037074;28;20033;-77
2023/01/27 10:01:28;;;;;;;7.25;4.03;;;;;;;2.46;95.46;102772.72;5044785;28;20116;-77
2023/01/27 10:04:11;;;;;;;6.70;3.72;;;;;;;2.44;95.79;102766.81;5041553;28;20036;-78
2023/01/27 10:06:55;;;;;;;5.70;3.40;;;;;;;2.43;95.67;102762.56;5042506;28;20473;-78
2023/01/27 10:09:34;;;;;;;7.82;4.10;;;;;;;2.46;95.91;102771.88;5043118;28;20033;-77
2023/01/27 10:12:24;;;;;;;7.32;3.65;;;;;;;2.46;95.62;102771.88;5039113;28;20444;-77
2023/01/27 10:15:10;;;;;;;7.10;4.07;;;;;;;2.46;95.93;102771.88;5038403;28;20037;-77
2023/01/27 10:18:16;;;;;;;7.03;3.70;;;;;;;2.44;96.04;102758.28;5042945;28;20118;-78
2023/01/27 10:21:00;;;;;;;6.55;3.95;;;;;;;2.46;95.96;102765.03;5040237;28;20136;-77
2023/01/27 10:23:28;;;;;;;5.75;3.60;;;;;;;2.44;95.68;102766.81;5043215;28;20049;-77
2023/01/27 10:26:09;;;;;;;6.60;3.60;;;;;;;2.42;95.55;102766.00;5040113;28;20146;-78
2023/01/27 10:28:37;;;;;;;6.75;4.00;;;;;;;2.42;95.15;102766.00;5040169;28;20198;-78
2023/01/27 10:31:19;;;;;;;6.47;3.65;;;;;;;2.42;95.83;102766.00;5046210;28;20058;-80
2023/01/27 10:33:50;;;;;;;6.45;3.55;;;;;;;2.41;96.06;102754.06;5035298;28;20053;-78
2023/01/27 10:36:25;;;;;;;7.22;3.85;;;;;;;2.42;95.74;102760.03;5040557;28;20035;-78
2023/01/27 10:39:09;;;;;;;7.03;3.80;;;;;;;2.43;96.15;102757.44;5045535;28;20060;-77
2023/01/27 10:41:49;;;;;;;6.05;3.65;;;;;;;2.43;96.27;102754.88;5040552;28;20116;-77
2023/01/27 10:44:29;;;;;;;7.28;3.80;;;;;;;2.45;96.80;102760.81;5039822;28;20137;-77
2023/01/27 10:46:57;;;;;;;6.85;4.20;;;;;;;2.47;96.95;102759.06;5040650;28;20024;-78
2023/01/27 10:49:34;;;;;;;7.72;4.20;;;;;;;2.43;96.64;102743.78;5046367;28;20033;-78
2023/01/27 10:52:08;;;;;;;6.55;3.80;;;;;;;2.47;96.23;102753.97;5045518;28;20028;-78
2023/01/27 10:55:09;;;;;;;6.28;3.58;;;;;;;2.50;96.24;102764.13;5044377;28;20468;-77
2023/01/27 10:57:46;;;;;;;6.28;3.72;;;;;;;2.52;96.68;102761.53;5032808;28;20044;-77
2023/01/27 11:00:32;;;;;;;7.55;4.25;;;;;;;2.54;96.74;102760.66;5038215;28;20029;-77
2023/01/27 11:03:08;;;;;;;7.40;3.72;;;;;;;2.54;97.25;102755.53;5037973;28;20024;-78
2023/01/27 11:05:41;;;;;;;8.43;4.57;;;;;;;2.54;96.66;102758.09;5040484;28;20032;-78
2023/01/27 11:08:15;;;;;;;7.68;4.20;;;;;;;2.53;96.76;102753.00;5041995;28;20024;-78
2023/01/27 11:13:33;;;;;;;6.68;3.75;;;;;;;2.56;96.84;102753.78;5038545;28;20098;-79
2023/01/27 11:16:00;;;;;;;8.30;4.18;;;;;;;2.58;96.41;102756.31;5040642;28;20029;-77
2023/01/27 11:18:34;;;;;;;7.10;4.15;;;;;;;2.56;97.09;102743.53;5038732;28;20029;-77
2023/01/27 11:21:05;;;;;;;6.80;4.03;;;;;;;2.56;95.89;102743.53;5039474;28;20045;-77
2023/01/27 11:23:39;;;;;;;7.70;4.38;;;;;;;2.56;96.90;102738.41;5043242;28;20025;-78
2023/01/27 11:26:23;;;;;;;7.55;4.43;;;;;;;2.62;97.10;102748.56;5043564;28;20499;-78
2023/01/27 11:29:25;;;;;;;7.55;4.07;;;;;;;2.64;96.15;102736.56;5039878;28;20108;-78
2023/01/27 11:32:09;;;;;;;7.18;4.10;;;;;;;2.63;95.14;102734.88;5044800;28;20035;-78
2023/01/27 11:34:53;;;;;;;7.20;4.05;;;;;;;2.62;95.65;102728.06;5040782;28;20059;-76
2023/01/27 11:37:31;;;;;;;7.50;3.97;;;;;;;2.62;95.41;102722.94;5046504;28;20032;-77
2023/01/27 11:39:56;;;;;;;7.03;4.28;;;;;;;2.64;95.49;102730.63;5042028;28;20107;-77
2023/01/27 11:42:26;;;;;;;6.90;4.43;;;;;;;2.63;96.44;102724.63;5034635;28;20583;-77
2023/01/27 11:44:55;;;;;;;8.25;5.68;;;;;;;2.61;96.12;102726.38;5033760;28;20033;-76
2023/01/27 11:47:25;;;;;;;7.95;4.70;;;;;;;2.64;96.26;102721.22;5036103;28;20031;-76
2023/01/27 11:49:52;;;;;;;8.25;5.10;;;;;;;2.63;96.14;102724.63;5037259;28;20040;-77
2023/01/27 11:52:19;;;;;;;8.80;4.88;;;;;;;2.63;95.86;102719.50;5031229;28;20021;-77
2023/01/27 11:54:54;;;;;;;6.80;3.87;;;;;;;2.67;96.76;102723.69;5045357;28;20020;-77
2023/01/27 11:57:22;;;;;;;9.73;4.95;;;;;;;2.65;95.92;102706.69;5044090;28;20025;-77
2023/01/27 11:59:58;;;;;;;7.60;4.32;;;;;;;2.66;95.43;102716.88;5038565;28;20142;-77
2023/01/27 12:02:28;;;;;;;7.45;4.55;;;;;;;2.61;95.63;102705.03;5039143;28;20116;-76
2023/01/27 12:05:17;;;;;;;8.18;4.45;;;;;;;2.69;96.35;102713.41;5037077;28;20480;-77
2023/01/27 12:07:56;;;;;;;6.75;4.05;;;;;;;2.67;95.14;102705.75;5037104;28;20033;-77